Time;durP1;ratioP1;P1;durP2;ratioP2;P2;SDS_P1;SDS_P2;PMS_P1;PMS_P2;Temp;Humidity;BMP_temperature;BMP_pressure;BME280_temperature;BME280_humidity;BME280_pressure;Samples;Min_cycle;Max_cycle;Signal;HPM_P1;HPM_P2
2021/12/11 00:00:15;;;;;;;1.88;0.77;;;4.40;99.90;;;;;;4866246;29;20054;-82
2021/12/11 06:02:40;;;;;;;2.97;1.73;;;3.00;99.90;;;;;;4941902;23;20048;-80
2021/12/11 06:05:07;;;;;;;3.30;1.80;;;3.00;99.90;;;;;;4925336;29;20063;-88
2021/12/11 06:07:35;;;;;;;3.08;1.92;;;3.10;99.90;;;;;;4923914;29;20107;-87
2021/12/11 06:10:11;;;;;;;3.30;1.80;;;3.10;99.90;;;;;;4928885;29;20637;-91
2021/12/11 06:16:20;;;;;;;3.13;1.83;;;3.10;99.90;;;;;;4924442;29;20516;-93
2021/12/11 06:18:49;;;;;;;4.43;2.28;;;3.10;99.90;;;;;;4924434;29;20048;-92
2021/12/11 06:21:17;;;;;;;5.55;2.28;;;3.10;99.90;;;;;;4935579;29;20059;-82
2021/12/11 06:23:45;;;;;;;3.53;2.17;;;3.00;99.90;;;;;;4929075;29;20063;-87
2021/12/11 06:26:13;;;;;;;3.38;2.13;;;3.00;99.90;;;;;;4921043;29;20076;-85
2021/12/11 06:28:41;;;;;;;4.25;2.60;;;3.00;99.90;;;;;;4922191;29;20514;-85
2021/12/11 06:31:18;;;;;;;4.20;2.55;;;3.00;99.90;;;;;;4932084;29;20056;-91
2021/12/11 06:33:53;;;;;;;4.47;2.22;;;3.00;99.90;;;;;;4923489;29;20067;-90
2021/12/11 06:36:23;;;;;;;4.43;2.70;;;2.90;99.90;;;;;;4925328;29;20072;-82
2021/12/11 06:38:57;;;;;;;4.20;2.83;;;2.90;99.90;;;;;;4923264;29;20080;-81
2021/12/11 06:41:29;;;;;;;4.38;3.00;;;2.90;99.90;;;;;;4906500;29;20545;-90
2021/12/11 06:43:57;;;;;;;4.45;3.10;;;2.90;99.90;;;;;;4896687;29;20494;-86
2021/12/11 06:46:30;;;;;;;4.72;3.30;;;2.90;99.90;;;;;;4915309;29;20095;-91
2021/12/11 06:49:03;;;;;;;5.93;3.20;;;2.90;99.90;;;;;;4923079;29;20079;-92
2021/12/11 06:51:34;;;;;;;4.72;3.50;;;2.90;99.90;;;;;;4934755;29;20058;-95
2021/12/11 06:54:06;;;;;;;5.22;3.45;;;2.90;99.90;;;;;;4933293;29;20044;-90
2021/12/11 06:56:37;;;;;;;5.60;3.63;;;2.90;99.90;;;;;;4917895;29;20056;-91
2021/12/11 06:59:05;;;;;;;5.57;3.67;;;2.90;99.90;;;;;;4923088;29;20058;-87
2021/12/11 07:01:34;;;;;;;4.80;3.22;;;2.90;99.90;;;;;;4930198;29;20056;-86
2021/12/11 07:04:09;;;;;;;4.88;3.40;;;2.90;99.90;;;;;;4930660;29;20446;-84
2021/12/11 07:06:39;;;;;;;4.93;3.00;;;3.00;99.90;;;;;;4922621;29;20135;-86
2021/12/11 07:09:13;;;;;;;4.93;3.33;;;2.90;99.90;;;;;;4922652;29;20105;-91
2021/12/11 07:11:43;;;;;;;5.22;3.30;;;3.00;99.90;;;;;;4922485;29;20071;-91
2021/12/11 07:16:46;;;;;;;5.25;3.30;;;3.00;99.90;;;;;;4551774;23;20089;-76
2021/12/11 07:19:15;;;;;;;5.07;3.25;;;2.90;99.90;;;;;;4944121;28;20054;-77
2021/12/11 07:21:46;;;;;;;5.05;3.25;;;3.00;99.90;;;;;;4949158;28;20142;-76
2021/12/11 07:24:15;;;;;;;5.22;3.58;;;3.00;99.90;;;;;;4948136;28;20043;-77
2021/12/11 07:26:43;;;;;;;6.38;3.30;;;3.00;99.90;;;;;;4944697;29;20050;-76
2021/12/11 07:29:15;;;;;;;5.70;3.88;;;3.00;99.90;;;;;;4942044;29;20569;-76
2021/12/11 07:31:45;;;;;;;5.32;3.33;;;3.00;99.90;;;;;;4946793;28;20496;-76
2021/12/11 07:34:16;;;;;;;5.55;3.60;;;3.10;99.90;;;;;;4950100;29;20075;-76
2021/12/11 07:36:44;;;;;;;5.57;3.92;;;3.00;99.90;;;;;;4943511;29;20054;-76
2021/12/11 07:39:15;;;;;;;4.72;2.92;;;3.00;99.90;;;;;;4943316;29;20079;-76
2021/12/11 07:41:43;;;;;;;4.85;3.28;;;3.10;99.90;;;;;;4943813;29;20411;-77
2021/12/11 07:44:10;;;;;;;5.10;3.05;;;3.00;99.90;;;;;;4938364;29;20467;-76
2021/12/11 07:46:37;;;;;;;5.28;3.35;;;3.00;99.90;;;;;;4943235;29;20043;-74
2021/12/11 07:49:06;;;;;;;4.93;3.30;;;3.00;99.90;;;;;;4949322;28;20082;-77
2021/12/11 07:51:37;;;;;;;5.40;3.60;;;3.00;99.90;;;;;;4940093;29;20139;-76
2021/12/11 07:54:06;;;;;;;5.70;3.55;;;3.10;99.90;;;;;;4947525;29;20078;-75
2021/12/11 07:56:34;;;;;;;6.45;4.05;;;3.10;99.90;;;;;;4946234;29;20047;-76
2021/12/11 07:59:08;;;;;;;6.78;4.20;;;3.10;99.90;;;;;;4943332;29;20083;-73
2021/12/11 08:01:41;;;;;;;6.13;3.95;;;3.10;99.90;;;;;;4948782;28;20051;-74
2021/12/11 08:04:09;;;;;;;5.05;3.38;;;3.10;99.90;;;;;;4947530;28;20484;-77
2021/12/11 08:06:38;;;;;;;5.53;3.95;;;3.10;99.90;;;;;;4946004;28;20527;-78
2021/12/11 08:09:11;;;;;;;5.10;3.45;;;3.10;99.90;;;;;;4939763;29;20067;-78
2021/12/11 08:11:38;;;;;;;5.25;3.72;;;3.10;99.90;;;;;;4947805;28;20043;-77
2021/12/11 08:14:07;;;;;;;5.53;3.90;;;3.10;99.90;;;;;;4942195;28;20488;-77
2021/12/11 08:16:45;;;;;;;6.50;3.75;;;3.10;99.90;;;;;;4940950;29;20142;-77
2021/12/11 08:19:14;;;;;;;5.65;3.70;;;3.10;99.90;;;;;;4938603;29;20048;-76
2021/12/11 08:21:44;;;;;;;5.75;3.55;;;3.00;99.90;;;;;;4947553;28;20049;-77
2021/12/11 08:24:11;;;;;;;6.63;4.10;;;3.00;99.90;;;;;;4951591;28;20150;-76
2021/12/11 08:26:40;;;;;;;5.82;4.10;;;3.10;99.90;;;;;;4948148;28;20071;-75
2021/12/11 08:29:09;;;;;;;5.68;3.70;;;3.10;99.90;;;;;;4943139;29;20044;-77
2021/12/11 08:31:37;;;;;;;5.88;3.70;;;3.10;99.90;;;;;;4939961;29;20138;-77
2021/12/11 08:34:04;;;;;;;5.90;3.83;;;3.10;99.90;;;;;;4941631;29;20051;-75
2021/12/11 08:36:32;;;;;;;5.43;3.80;;;3.10;99.90;;;;;;4950717;28;20061;-76
2021/12/11 08:39:01;;;;;;;5.57;3.80;;;3.10;99.90;;;;;;4949069;28;20043;-76
2021/12/11 08:41:29;;;;;;;5.90;4.07;;;3.10;99.90;;;;;;4944570;29;20051;-76
2021/12/11 08:44:04;;;;;;;6.13;4.07;;;3.10;99.90;;;;;;4950607;29;20039;-76
2021/12/11 08:46:33;;;;;;;;;;;3.10;99.90;;;;;;4949367;28;20050;-78
2021/12/11 08:49:06;;;;;;;8.70;4.45;;;3.10;99.90;;;;;;4942211;28;19926;-77
2021/12/11 08:51:38;;;;;;;7.40;4.57;;;3.20;99.90;;;;;;4939105;28;20047;-77
2021/12/11 08:54:08;;;;;;;6.13;4.30;;;3.20;99.90;;;;;;4942759;29;20040;-78
2021/12/11 08:56:37;;;;;;;7.30;4.72;;;3.20;99.90;;;;;;4940076;29;20412;-77
2021/12/11 08:59:05;;;;;;;6.70;4.53;;;3.20;99.90;;;;;;4943679;29;20051;-77
2021/12/11 09:01:38;;;;;;;7.15;4.75;;;3.20;99.90;;;;;;4938240;29;20058;-79
2021/12/11 09:04:11;;;;;;;6.32;4.40;;;3.30;99.90;;;;;;4941594;28;20798;-78
2021/12/11 09:06:43;;;;;;;6.65;4.68;;;3.30;99.90;;;;;;4937443;29;20493;-78
2021/12/11 09:09:18;;;;;;;6.65;4.75;;;3.30;99.90;;;;;;4950015;28;20053;-77
2021/12/11 09:11:52;;;;;;;7.70;4.80;;;3.40;99.90;;;;;;4945237;29;20736;-78
2021/12/11 09:14:29;;;;;;;7.40;5.32;;;3.40;99.90;;;;;;4951199;28;20050;-79
2021/12/11 09:17:05;;;;;;;7.95;5.55;;;3.40;99.90;;;;;;4945735;29;20131;-78
2021/12/11 09:19:41;;;;;;;8.20;5.10;;;3.40;99.90;;;;;;4945292;29;20078;-78
2021/12/11 09:22:15;;;;;;;7.50;5.30;;;3.40;99.90;;;;;;4948073;29;20579;-79
2021/12/11 09:24:49;;;;;;;7.22;5.13;;;3.40;99.90;;;;;;4947258;29;20051;-79
2021/12/11 09:27:22;;;;;;;8.07;5.72;;;3.40;99.90;;;;;;4944658;28;20051;-78
2021/12/11 09:29:54;;;;;;;8.20;5.18;;;3.40;99.90;;;;;;4952191;29;20053;-77
2021/12/11 09:32:31;;;;;;;8.48;5.65;;;3.40;99.90;;;;;;4946755;29;20050;-78
2021/12/11 09:35:06;;;;;;;9.30;5.57;;;3.40;99.90;;;;;;4950024;28;20070;-78
2021/12/11 09:37:36;;;;;;;9.10;5.72;;;3.50;99.90;;;;;;4948585;28;20447;-79
2021/12/11 09:40:12;;;;;;;9.73;5.97;;;3.50;99.90;;;;;;4942684;28;20058;-79
2021/12/11 09:42:38;;;;;;;8.35;5.78;;;3.50;99.90;;;;;;4949252;29;20146;-77
2021/12/11 09:45:14;;;;;;;7.72;5.78;;;3.60;99.90;;;;;;4947926;29;20126;-78
2021/12/11 09:47:50;;;;;;;8.60;5.82;;;3.60;99.90;;;;;;4949509;29;20122;-80
2021/12/11 09:50:25;;;;;;;8.63;6.10;;;3.60;99.90;;;;;;4947626;28;20082;-79
2021/12/11 09:52:54;;;;;;;9.55;6.60;;;3.60;99.90;;;;;;4949325;28;20079;-79
2021/12/11 09:55:27;;;;;;;9.32;5.85;;;3.60;99.90;;;;;;4946085;28;20051;-78
2021/12/11 09:58:00;;;;;;;10.32;6.57;;;3.60;99.90;;;;;;4939332;29;20082;-78
2021/12/11 10:00:35;;;;;;;9.93;6.60;;;3.60;99.90;;;;;;4948510;29;20489;-76
2021/12/11 10:03:04;;;;;;;;;;;3.60;99.90;;;;;;4948268;29;20046;-78
2021/12/11 10:05:38;;;;;;;11.02;6.38;;;3.70;99.90;;;;;;4949715;29;20407;-79
2021/12/11 10:10:52;;;;;;;9.70;6.30;;;3.70;99.90;;;;;;4942491;29;20043;-80
2021/12/11 10:13:20;;;;;;;10.27;6.55;;;3.70;99.90;;;;;;4943715;28;20054;-79
2021/12/11 10:15:49;;;;;;;9.25;6.50;;;3.80;99.90;;;;;;4943456;28;20061;-79
2021/12/11 10:18:20;;;;;;;10.05;6.88;;;3.80;99.90;;;;;;4952051;28;20129;-81
2021/12/11 10:20:53;;;;;;;9.75;6.65;;;3.90;99.90;;;;;;4945960;29;20047;-82
2021/12/11 10:23:26;;;;;;;9.88;6.60;;;4.00;99.90;;;;;;4951405;29;20138;-80
2021/12/11 10:25:55;;;;;;;10.68;7.00;;;4.00;99.90;;;;;;4945324;29;20043;-83
2021/12/11 10:28:27;;;;;;;9.68;6.28;;;4.00;99.90;;;;;;4945148;28;20058;-83
2021/12/11 10:31:01;;;;;;;11.23;7.07;;;4.10;99.90;;;;;;4953018;29;20055;-82
2021/12/11 10:33:31;;;;;;;10.20;6.85;;;4.10;99.90;;;;;;4947444;28;20051;-83
2021/12/11 10:36:04;;;;;;;11.35;7.53;;;4.20;99.90;;;;;;4948137;29;20055;-83
2021/12/11 10:38:31;;;;;;;9.73;6.75;;;4.20;99.90;;;;;;4944305;29;20043;-83
2021/12/11 10:41:04;;;;;;;9.75;6.78;;;4.30;99.90;;;;;;4946425;28;20044;-82
2021/12/11 10:43:36;;;;;;;9.32;6.45;;;4.30;99.90;;;;;;4947423;29;20049;-81
2021/12/11 10:46:07;;;;;;;8.25;5.75;;;4.30;99.90;;;;;;4950202;28;20043;-83
2021/12/11 10:48:37;;;;;;;11.15;6.90;;;4.30;99.90;;;;;;4943936;29;20500;-79
2021/12/11 10:51:09;;;;;;;8.88;6.35;;;4.30;99.90;;;;;;4945431;29;20147;-79
2021/12/11 10:53:38;;;;;;;10.27;6.65;;;4.30;99.90;;;;;;4951868;29;20043;-80
2021/12/11 10:56:08;;;;;;;8.52;5.70;;;4.40;99.90;;;;;;4942593;29;20560;-79
2021/12/11 10:58:40;;;;;;;9.00;5.45;;;4.40;99.90;;;;;;4945355;29;20047;-77
2021/12/11 11:01:14;;;;;;;8.40;5.85;;;4.50;99.90;;;;;;4953825;29;20054;-77
2021/12/11 11:03:48;;;;;;;8.95;5.78;;;4.50;99.90;;;;;;4951739;29;20054;-77
2021/12/11 11:06:16;;;;;;;9.25;5.65;;;4.50;99.90;;;;;;4953334;29;20054;-75
2021/12/11 11:08:44;;;;;;;8.30;5.53;;;4.60;99.90;;;;;;4948992;29;20061;-75
2021/12/11 11:11:16;;;;;;;8.35;5.40;;;4.60;99.90;;;;;;4952862;28;20054;-78
2021/12/11 11:13:44;;;;;;;8.70;5.78;;;4.60;99.90;;;;;;4953968;28;20043;-78
2021/12/11 11:16:13;;;;;;;8.05;5.70;;;4.60;99.90;;;;;;4952430;29;20055;-78
2021/12/11 11:18:40;;;;;;;8.13;5.72;;;4.60;99.90;;;;;;4953431;29;20493;-77
2021/12/11 11:21:13;;;;;;;7.50;5.50;;;4.60;99.90;;;;;;4948998;29;20572;-79
2021/12/11 11:23:44;;;;;;;11.30;6.63;;;4.60;99.90;;;;;;4943503;29;20044;-80
2021/12/11 11:26:16;;;;;;;12.32;6.85;;;4.50;99.90;;;;;;4948732;28;20043;-78
2021/12/11 11:28:44;;;;;;;9.23;5.47;;;4.60;99.90;;;;;;4940435;28;20051;-79
2021/12/11 11:31:17;;;;;;;11.65;6.45;;;4.60;99.90;;;;;;4952347;29;20094;-79
2021/12/11 11:33:45;;;;;;;10.20;5.70;;;4.70;99.90;;;;;;4942753;29;20066;-78
2021/12/11 11:36:18;;;;;;;9.75;6.13;;;4.80;99.90;;;;;;4943233;28;20047;-78
2021/12/11 11:38:52;;;;;;;8.90;5.50;;;4.80;99.90;;;;;;4948109;29;20046;-79
2021/12/11 11:41:24;;;;;;;7.75;5.15;;;4.80;99.90;;;;;;4949525;29;20138;-79
2021/12/11 11:43:52;;;;;;;8.38;5.22;;;4.80;99.90;;;;;;4937882;29;20066;-78
2021/12/11 11:46:22;;;;;;;7.35;4.90;;;4.80;99.90;;;;;;4926531;29;20408;-78
2021/12/11 11:48:54;;;;;;;11.80;4.93;;;4.80;99.90;;;;;;4938525;29;20043;-79
2021/12/11 11:51:30;;;;;;;10.50;5.13;;;4.80;99.90;;;;;;4930123;29;20059;-78
2021/12/11 11:53:57;;;;;;;10.35;5.13;;;4.80;99.90;;;;;;4944205;29;20050;-80
2021/12/11 11:56:29;;;;;;;8.95;5.03;;;4.80;99.90;;;;;;4943482;29;20511;-79
2021/12/11 11:58:58;;;;;;;8.02;5.22;;;4.90;99.90;;;;;;4938205;29;20052;-78
2021/12/11 12:01:30;;;;;;;7.95;5.00;;;4.90;99.90;;;;;;4943399;29;20047;-79
2021/12/11 12:04:00;;;;;;;6.72;4.40;;;4.90;99.90;;;;;;4944317;29;20046;-78
2021/12/11 12:06:34;;;;;;;6.80;4.20;;;4.90;99.90;;;;;;4942359;29;20047;-79
2021/12/11 12:09:06;;;;;;;7.93;4.55;;;4.80;99.90;;;;;;4951869;29;20099;-79
2021/12/11 12:11:34;;;;;;;8.70;4.43;;;4.70;99.90;;;;;;4944623;29;20055;-80
2021/12/11 12:14:05;;;;;;;6.95;4.15;;;4.70;99.90;;;;;;4947318;29;20062;-80
2021/12/11 12:16:36;;;;;;;7.03;4.10;;;4.60;99.90;;;;;;4943149;29;20138;-82
2021/12/11 12:19:06;;;;;;;7.57;4.60;;;4.60;99.90;;;;;;4942817;28;20130;-79
2021/12/11 12:21:34;;;;;;;6.95;4.00;;;4.50;99.90;;;;;;4935007;29;20044;-80
2021/12/11 12:24:02;;;;;;;8.05;4.70;;;4.40;99.90;;;;;;4942580;29;20059;-80
2021/12/11 12:26:33;;;;;;;6.38;3.95;;;4.50;99.90;;;;;;4940840;29;20042;-79
2021/12/11 12:29:01;;;;;;;9.48;4.88;;;4.40;99.90;;;;;;4941533;29;20098;-78
2021/12/11 12:31:34;;;;;;;8.63;4.55;;;4.40;99.90;;;;;;4947296;28;20122;-79
2021/12/11 12:34:02;;;;;;;6.28;4.18;;;4.40;99.90;;;;;;4941395;29;20122;-78
2021/12/11 12:36:30;;;;;;;5.93;3.80;;;4.40;99.90;;;;;;4942506;29;20048;-78
2021/12/11 12:38:58;;;;;;;7.07;4.32;;;4.40;99.90;;;;;;4927691;29;20674;-79
2021/12/11 12:41:30;;;;;;;7.80;4.05;;;4.50;99.90;;;;;;4932869;29;20228;-79
2021/12/11 12:44:18;;;;;;;7.65;4.97;;;4.50;99.90;;;;;;4944502;29;20134;-80
2021/12/11 12:46:56;;;;;;;8.18;4.38;;;4.50;99.90;;;;;;4944260;29;20051;-79
2021/12/11 12:49:25;;;;;;;6.35;3.72;;;4.50;99.90;;;;;;4942047;28;20064;-80
2021/12/11 12:51:53;;;;;;;6.75;4.30;;;4.50;99.90;;;;;;4943370;29;20373;-78
2021/12/11 12:54:23;;;;;;;6.60;4.18;;;4.40;99.90;;;;;;4942525;29;20056;-77
2021/12/11 12:56:57;;;;;;;7.97;4.70;;;4.40;99.90;;;;;;4948133;29;20053;-79
2021/12/11 12:59:30;;;;;;;6.55;4.28;;;4.40;99.90;;;;;;4930252;29;20127;-80
2021/12/11 13:02:04;;;;;;;8.30;5.07;;;4.40;99.90;;;;;;4941833;29;20520;-80
2021/12/11 13:04:38;;;;;;;7.70;4.85;;;4.40;99.90;;;;;;4945824;28;20485;-80
2021/12/11 13:07:12;;;;;;;7.67;4.70;;;4.40;99.90;;;;;;4938765;29;20131;-80
2021/12/11 13:09:43;;;;;;;6.90;4.13;;;4.40;99.90;;;;;;4943292;28;20043;-79
2021/12/11 13:12:17;;;;;;;7.28;4.32;;;4.40;99.90;;;;;;4946636;29;20773;-80
2021/12/11 13:14:48;;;;;;;10.82;6.60;;;4.60;99.70;;;;;;4949319;28;20449;-85
2021/12/11 13:17:21;;;;;;;7.35;4.10;;;4.70;99.40;;;;;;4946943;29;20423;-78
2021/12/11 13:19:54;;;;;;;6.50;3.85;;;4.70;99.80;;;;;;4945575;28;20057;-81
2021/12/11 13:22:25;;;;;;;6.68;3.90;;;4.70;99.10;;;;;;4946875;28;20051;-82
2021/12/11 13:24:59;;;;;;;5.95;3.88;;;4.70;99.00;;;;;;4948679;29;20043;-84
2021/12/11 13:27:29;;;;;;;7.07;3.70;;;4.80;98.90;;;;;;4949394;29;20486;-79
2021/12/11 13:30:00;;;;;;;5.97;3.28;;;4.90;98.50;;;;;;4955278;29;20043;-78
2021/12/11 13:32:32;;;;;;;5.65;3.55;;;4.90;98.00;;;;;;4946563;28;20061;-83
2021/12/11 13:35:04;;;;;;;5.47;3.40;;;5.00;97.40;;;;;;4949191;28;20043;-80
2021/12/11 13:37:33;;;;;;;4.68;3.00;;;;;;;;;;4945278;29;20039;-82
2021/12/11 13:40:05;;;;;;;4.57;2.40;;;11.10;74.30;;;;;;4956031;28;20424;-84
2021/12/11 13:42:34;;;;;;;4.40;2.47;;;11.10;74.10;;;;;;4948931;29;20382;-82
2021/12/11 13:45:07;;;;;;;4.32;2.53;;;11.50;65.20;;;;;;4951738;29;20057;-83
2021/12/11 13:47:38;;;;;;;4.32;2.67;;;10.80;65.70;;;;;;4940372;28;20074;-80
2021/12/11 13:50:12;;;;;;;4.93;2.40;;;10.00;66.50;;;;;;4945343;29;20493;-80
2021/12/11 13:52:40;;;;;;;3.70;2.40;;;9.10;68.60;;;;;;4946863;28;20204;-79
2021/12/11 13:55:11;;;;;;;3.78;2.35;;;8.40;71.70;;;;;;4946538;29;20047;-80
2021/12/11 13:57:39;;;;;;;7.30;3.53;;;7.80;75.00;;;;;;4948187;28;20439;-79
2021/12/11 14:00:13;;;;;;;4.47;2.70;;;7.30;76.60;;;;;;4944615;29;20106;-79
2021/12/11 14:02:41;;;;;;;5.05;2.80;;;6.90;80.10;;;;;;4944793;28;20135;-79
2021/12/11 14:05:09;;;;;;;4.75;3.03;;;6.60;83.70;;;;;;4951061;28;20687;-79
2021/12/11 14:07:38;;;;;;;5.97;3.08;;;6.30;86.80;;;;;;4950793;29;20054;-78
2021/12/11 14:10:20;;;;;;;7.30;3.22;;;6.10;89.70;;;;;;4947017;28;20050;-78
2021/12/11 14:12:49;;;;;;;5.10;2.97;;;5.90;90.90;;;;;;4946007;29;20047;-75
2021/12/11 14:15:17;;;;;;;7.22;3.50;;;5.70;91.70;;;;;;4949353;28;20058;-79
2021/12/11 14:17:46;;;;;;;6.07;3.40;;;5.60;92.40;;;;;;4950046;28;20043;-79
2021/12/11 14:20:14;;;;;;;7.35;3.72;;;5.60;93.30;;;;;;4944505;29;20494;-78
2021/12/11 14:22:42;;;;;;;5.90;3.70;;;5.40;94.10;;;;;;4946346;28;20047;-77
2021/12/11 14:25:13;;;;;;;5.88;3.67;;;5.30;95.00;;;;;;4945050;29;20394;-78
2021/12/11 14:27:41;;;;;;;6.38;4.00;;;5.20;95.50;;;;;;4938995;28;20043;-79
2021/12/11 14:30:14;;;;;;;6.60;4.03;;;5.20;96.10;;;;;;4955609;28;20446;-79
2021/12/11 14:32:45;;;;;;;6.45;3.63;;;5.10;96.60;;;;;;4967987;28;20065;-79
2021/12/11 14:35:16;;;;;;;9.63;5.30;;;5.10;96.90;;;;;;4963288;28;20138;-80
2021/12/11 14:37:45;;;;;;;7.60;4.43;;;5.00;97.20;;;;;;4963753;28;20055;-80
2021/12/11 14:40:16;;;;;;;10.82;5.82;;;5.00;97.60;;;;;;4958500;28;20054;-78
2021/12/11 14:42:45;;;;;;;6.38;3.67;;;4.90;97.60;;;;;;4963274;28;20051;-81
2021/12/11 14:45:18;;;;;;;6.20;3.92;;;4.90;97.80;;;;;;4959366;28;20053;-78
2021/12/11 14:47:47;;;;;;;7.13;4.03;;;4.90;98.10;;;;;;4956706;28;21371;-80
2021/12/11 14:50:24;;;;;;;6.57;4.10;;;4.90;98.40;;;;;;4963675;28;20167;-80
2021/12/11 14:52:51;;;;;;;5.75;3.90;;;4.80;98.70;;;;;;4962701;28;20420;-77
2021/12/11 14:55:25;;;;;;;7.07;4.38;;;4.80;98.90;;;;;;4954284;28;20059;-80
2021/12/11 14:57:53;;;;;;;6.57;3.97;;;4.80;99.10;;;;;;4962938;28;20146;-82
2021/12/11 15:00:26;;;;;;;7.20;3.95;;;4.70;99.50;;;;;;4945865;28;20255;-79
2021/12/11 15:02:55;;;;;;;7.25;4.50;;;4.70;99.40;;;;;;4943640;29;20805;-81
2021/12/11 15:05:29;;;;;;;8.40;4.65;;;4.70;99.50;;;;;;4946381;29;20134;-81
2021/12/11 15:07:59;;;;;;;7.15;4.75;;;4.70;99.50;;;;;;4943687;29;20130;-83
2021/12/11 15:10:31;;;;;;;7.07;4.28;;;4.70;99.50;;;;;;4941771;29;20441;-80
2021/12/11 15:12:58;;;;;;;6.47;3.95;;;4.70;99.50;;;;;;4939327;29;20052;-78
2021/12/11 15:15:26;;;;;;;7.15;4.35;;;4.70;99.70;;;;;;4943456;29;20055;-80
2021/12/11 15:17:56;;;;;;;11.82;6.90;;;4.70;99.90;;;;;;4947296;29;20127;-79
2021/12/11 15:20:29;;;;;;;13.30;8.38;;;4.60;99.90;;;;;;4943743;29;20055;-77
2021/12/11 15:22:56;;;;;;;11.93;7.10;;;4.70;99.90;;;;;;4949697;29;20044;-77
2021/12/11 15:25:26;;;;;;;11.10;6.57;;;4.70;99.90;;;;;;4945245;29;20159;-78
2021/12/11 15:27:55;;;;;;;10.73;6.80;;;4.70;99.90;;;;;;4943170;29;20051;-78
2021/12/11 15:30:27;;;;;;;8.98;5.70;;;4.70;99.90;;;;;;4951617;29;20148;-79
2021/12/11 15:32:58;;;;;;;9.95;6.25;;;4.70;99.90;;;;;;4937931;28;20074;-78
2021/12/11 15:35:32;;;;;;;10.05;6.53;;;4.70;99.90;;;;;;4950391;28;20047;-78
2021/12/11 15:37:59;;;;;;;9.23;6.05;;;4.70;99.60;;;;;;4944146;28;20055;-78
2021/12/11 15:40:32;;;;;;;10.52;6.03;;;4.70;99.90;;;;;;4941169;29;20137;-78
2021/12/11 15:43:03;;;;;;;9.05;5.35;;;4.70;99.70;;;;;;4938626;28;20584;-78
2021/12/11 15:45:32;;;;;;;8.25;5.30;;;4.80;99.80;;;;;;4947116;28;20055;-78
2021/12/11 15:48:00;;;;;;;8.90;5.57;;;4.70;99.90;;;;;;4943913;28;20138;-80
2021/12/11 15:50:32;;;;;;;9.45;5.97;;;4.70;99.70;;;;;;4942952;29;20047;-78
2021/12/11 15:53:01;;;;;;;8.23;4.95;;;4.70;99.60;;;;;;4940888;29;20587;-77
2021/12/11 15:55:30;;;;;;;9.35;6.10;;;4.70;99.50;;;;;;4946876;29;20055;-79
2021/12/11 15:58:03;;;;;;;9.27;6.00;;;4.70;99.60;;;;;;4951384;29;20066;-78
2021/12/11 16:00:35;;;;;;;9.30;5.28;;;4.70;99.60;;;;;;4941228;28;20078;-78
2021/12/11 16:03:03;;;;;;;9.30;5.47;;;4.70;99.60;;;;;;4945031;29;20051;-79
2021/12/11 16:05:31;;;;;;;8.35;5.75;;;4.60;99.40;;;;;;4944320;29;20099;-80
2021/12/11 16:07:59;;;;;;;8.85;5.40;;;4.70;99.40;;;;;;4942771;28;20052;-78
2021/12/11 16:10:28;;;;;;;9.55;5.70;;;4.60;99.50;;;;;;4939776;29;20052;-80
2021/12/11 16:12:56;;;;;;;9.18;5.75;;;4.60;99.60;;;;;;4939633;28;20445;-77
2021/12/11 16:15:28;;;;;;;9.18;5.65;;;4.60;99.50;;;;;;4948010;28;20142;-76
2021/12/11 16:17:55;;;;;;;9.48;6.22;;;4.60;99.60;;;;;;4949733;29;20129;-77
2021/12/11 16:20:30;;;;;;;10.05;6.00;;;4.60;99.80;;;;;;4958869;28;20061;-77
2021/12/11 16:22:58;;;;;;;9.77;6.45;;;4.60;99.60;;;;;;4952180;28;20491;-77
2021/12/11 16:25:30;;;;;;;9.20;5.93;;;4.50;99.60;;;;;;4954152;28;20093;-78
2021/12/11 16:28:03;;;;;;;10.98;6.32;;;4.50;99.50;;;;;;4954439;28;20074;-76
2021/12/11 16:30:33;;;;;;;9.65;5.97;;;4.50;99.60;;;;;;4945005;29;20055;-77
2021/12/11 16:33:01;;;;;;;10.05;5.95;;;4.50;99.70;;;;;;4944777;29;20486;-78
2021/12/11 16:35:31;;;;;;;10.90;6.38;;;4.40;99.70;;;;;;4948349;29;20130;-76
2021/12/11 16:38:02;;;;;;;13.50;7.80;;;4.40;99.70;;;;;;4939664;29;20058;-77
2021/12/11 16:40:35;;;;;;;11.27;7.28;;;4.40;99.80;;;;;;4943383;29;20047;-76
2021/12/11 16:43:11;;;;;;;10.93;7.20;;;4.40;99.90;;;;;;4943914;28;20126;-77
2021/12/11 16:45:46;;;;;;;10.88;6.88;;;4.40;99.90;;;;;;4937071;29;20067;-76
2021/12/11 16:48:17;;;;;;;9.73;5.93;;;4.40;99.90;;;;;;4942848;29;20047;-78
2021/12/11 16:50:46;;;;;;;11.27;6.43;;;4.40;99.90;;;;;;4949658;28;20416;-79
2021/12/11 16:53:19;;;;;;;10.30;6.43;;;4.40;99.90;;;;;;4938020;29;20054;-78
2021/12/11 16:55:49;;;;;;;10.60;6.50;;;4.30;99.90;;;;;;4937004;29;20078;-79
2021/12/11 16:58:17;;;;;;;11.95;6.82;;;4.40;99.90;;;;;;4939257;28;20494;-79
2021/12/11 17:00:46;;;;;;;13.95;8.30;;;4.40;99.90;;;;;;4942965;28;20059;-76
2021/12/11 17:03:13;;;;;;;12.57;7.22;;;4.40;99.90;;;;;;4941945;29;20464;-77
2021/12/11 17:05:41;;;;;;;11.07;6.40;;;4.40;99.90;;;;;;4947756;29;20053;-78
2021/12/11 17:08:08;;;;;;;12.80;7.32;;;4.30;99.90;;;;;;4944758;28;20146;-78
2021/12/11 17:10:43;;;;;;;9.85;6.32;;;4.40;99.90;;;;;;4935724;29;20110;-79
2021/12/11 17:13:12;;;;;;;9.48;5.90;;;4.40;99.90;;;;;;4943432;28;20058;-78
2021/12/11 17:15:41;;;;;;;11.23;6.30;;;4.40;99.90;;;;;;4943696;29;20145;-78
2021/12/11 17:18:11;;;;;;;10.50;6.00;;;4.40;99.90;;;;;;4945352;28;20047;-78
2021/12/11 17:20:38;;;;;;;12.05;6.90;;;4.40;99.90;;;;;;4947084;28;20051;-79
2021/12/11 17:23:06;;;;;;;10.97;6.70;;;4.40;99.90;;;;;;4945334;29;20484;-77
2021/12/11 17:25:39;;;;;;;11.05;6.50;;;4.40;99.90;;;;;;4941733;29;20075;-78
2021/12/11 17:28:11;;;;;;;9.85;6.15;;;4.30;99.90;;;;;;4948065;28;20154;-78
2021/12/11 17:30:44;;;;;;;11.88;6.93;;;4.30;99.90;;;;;;4941380;29;20043;-79
2021/12/11 17:33:11;;;;;;;11.77;6.95;;;4.30;99.90;;;;;;4945583;28;20057;-77
2021/12/11 17:35:39;;;;;;;12.25;6.93;;;4.30;99.90;;;;;;4937798;29;20050;-79
2021/12/11 17:38:10;;;;;;;10.85;6.25;;;4.30;99.90;;;;;;4948354;29;20051;-76
2021/12/11 17:40:43;;;;;;;11.43;6.80;;;4.30;99.90;;;;;;4930694;29;20047;-79
2021/12/11 17:43:10;;;;;;;11.07;6.95;;;4.30;99.90;;;;;;4940606;29;20480;-77
2021/12/11 17:45:39;;;;;;;11.95;6.97;;;4.30;99.90;;;;;;4935552;29;20130;-77
2021/12/11 17:48:13;;;;;;;12.63;7.25;;;4.30;99.90;;;;;;4940691;29;20126;-78
2021/12/11 17:50:44;;;;;;;12.85;7.88;;;4.30;99.90;;;;;;4944162;29;20043;-79
2021/12/11 17:53:11;;;;;;;11.80;7.30;;;4.40;99.90;;;;;;4943224;29;20057;-77
2021/12/11 17:55:44;;;;;;;12.93;8.13;;;4.40;99.90;;;;;;4938418;29;20130;-76
2021/12/11 17:58:13;;;;;;;12.07;7.68;;;4.40;99.90;;;;;;4942478;28;20054;-78
2021/12/11 18:00:47;;;;;;;11.75;7.55;;;4.40;99.90;;;;;;4945495;29;20166;-77
2021/12/11 18:03:15;;;;;;;12.43;7.57;;;4.30;99.90;;;;;;4946543;28;20047;-77
2021/12/11 18:05:49;;;;;;;10.88;7.00;;;4.40;99.90;;;;;;4944510;28;20058;-77
2021/12/11 18:08:22;;;;;;;12.63;7.43;;;4.40;99.90;;;;;;4948500;29;20126;-74
2021/12/11 18:10:58;;;;;;;12.23;7.45;;;4.40;99.90;;;;;;4941387;29;20115;-76
2021/12/11 18:13:35;;;;;;;9.50;6.28;;;4.40;99.90;;;;;;4950880;29;20122;-75
2021/12/11 18:16:07;;;;;;;10.88;6.93;;;4.40;99.90;;;;;;4939953;29;20048;-74
2021/12/11 18:18:41;;;;;;;10.38;6.43;;;4.40;99.90;;;;;;4945687;28;20465;-77
2021/12/11 18:21:13;;;;;;;11.00;6.83;;;4.40;99.90;;;;;;4949912;28;20058;-77
2021/12/11 18:23:42;;;;;;;10.75;6.35;;;4.40;99.90;;;;;;4951088;29;20306;-78
2021/12/11 18:26:16;;;;;;;26.50;13.25;;;4.30;99.90;;;;;;4950421;29;20492;-78
2021/12/11 18:28:45;;;;;;;21.50;10.63;;;4.40;99.90;;;;;;4946369;28;20047;-78
2021/12/11 18:31:18;;;;;;;16.33;9.48;;;4.30;99.90;;;;;;4943233;29;20553;-77
2021/12/11 18:33:45;;;;;;;12.18;6.80;;;4.40;99.90;;;;;;4951523;29;20051;-78
2021/12/11 18:36:17;;;;;;;9.13;5.55;;;4.40;99.90;;;;;;4950587;28;20044;-78
2021/12/11 18:38:46;;;;;;;9.68;6.10;;;4.40;99.90;;;;;;4945818;28;20154;-78
2021/12/11 18:41:22;;;;;;;9.02;5.70;;;4.40;99.90;;;;;;4948859;29;20044;-78
2021/12/11 18:43:51;;;;;;;9.77;5.95;;;4.40;99.90;;;;;;4947713;29;20630;-78
2021/12/11 18:46:30;;;;;;;9.27;5.60;;;4.40;99.90;;;;;;4942275;29;20062;-77
2021/12/11 18:48:58;;;;;;;8.77;5.45;;;4.40;99.90;;;;;;4937112;29;20058;-77
2021/12/11 18:51:29;;;;;;;9.38;5.50;;;4.50;99.90;;;;;;4946978;28;20047;-76
2021/12/11 18:54:00;;;;;;;8.88;5.70;;;4.50;99.90;;;;;;4946597;29;20102;-76
2021/12/11 18:56:31;;;;;;;7.97;4.97;;;4.50;99.90;;;;;;4943579;29;20094;-77
2021/12/11 18:59:05;;;;;;;8.90;5.43;;;4.40;99.90;;;;;;4950668;29;20047;-78
2021/12/11 19:01:38;;;;;;;9.25;5.13;;;4.50;99.90;;;;;;4939285;29;20053;-78
2021/12/11 19:04:09;;;;;;;7.97;5.28;;;4.40;99.90;;;;;;4949702;28;20138;-78
2021/12/11 19:06:38;;;;;;;8.90;5.55;;;4.50;99.90;;;;;;4940608;29;20126;-77
2021/12/11 19:09:10;;;;;;;8.48;5.07;;;4.50;99.90;;;;;;4946081;28;20082;-77
2021/12/11 19:11:43;;;;;;;8.52;5.05;;;4.50;99.90;;;;;;4944199;29;20129;-75
2021/12/11 19:14:11;;;;;;;7.95;5.05;;;4.50;99.90;;;;;;4949906;29;20253;-77
2021/12/11 19:16:40;;;;;;;8.10;4.97;;;4.50;99.90;;;;;;4943374;29;20057;-77
2021/12/11 19:19:12;;;;;;;7.90;4.80;;;4.50;99.90;;;;;;4944900;28;20462;-77
2021/12/11 19:21:45;;;;;;;8.55;5.30;;;4.60;99.90;;;;;;4949679;28;20082;-76